Tonka Bay, Minnesota
Current Conditions -  °F | °C
As of 11:53 PM on Friday 28 Nov 2014 (Local Time) from KFCM Reporting Station
Clear Clear  
Wind Chill: -11°   Ceiling: Unl
Heat Index: -6°   Visibility: 8mi
Dew Point: -8°   Wind: 9mph
Humidity: 85%   Direction: 120°ESE
Pressure: 29.66"   Gusts: NA
Location:  44.8924°N, 93.5895°W
Report Text: KFCM 290553Z 12008KT 8SM CLR M06/M08 A2966 RMK AO2 SLP057 60000 T10561078 11044 21056 410441144 58027
Loading
Personal Weather Stations






























Interactive Weather Map New forecast layout! Learn more

10-Day Weather Forecast

Advertisements
Track Severe Weather on mobile